sensor_id;sensor_type;location;lat;lon;timestamp;temperature;humidity
1956;DHT22;978;48.314;11.562;2023-06-14T00:01:58;22.40;73.30
1956;DHT22;978;48.314;11.562;2023-06-14T00:04:26;22.40;73.20
1956;DHT22;978;48.314;11.562;2023-06-14T00:06:54;22.40;73.30
1956;DHT22;978;48.314;11.562;2023-06-14T00:09:23;22.40;73.20
1956;DHT22;978;48.314;11.562;2023-06-14T00:11:51;22.40;73.30
1956;DHT22;978;48.314;11.562;2023-06-14T00:14:20;22.40;73.20
1956;DHT22;978;48.314;11.562;2023-06-14T00:16:47;22.40;73.20
1956;DHT22;978;48.314;11.562;2023-06-14T00:19:14;22.40;73.20
1956;DHT22;978;48.314;11.562;2023-06-14T00:21:41;22.40;73.20
1956;DHT22;978;48.314;11.562;2023-06-14T00:24:09;22.40;73.20
1956;DHT22;978;48.314;11.562;2023-06-14T00:26:35;22.40;73.20
1956;DHT22;978;48.314;11.562;2023-06-14T00:29:02;22.40;73.20
1956;DHT22;978;48.314;11.562;2023-06-14T00:31:31;22.40;73.20
1956;DHT22;978;48.314;11.562;2023-06-14T00:33:58;22.40;73.10
1956;DHT22;978;48.314;11.562;2023-06-14T00:36:26;22.40;73.10
1956;DHT22;978;48.314;11.562;2023-06-14T00:38:55;22.40;73.10
1956;DHT22;978;48.314;11.562;2023-06-14T00:41:21;22.40;73.10
1956;DHT22;978;48.314;11.562;2023-06-14T00:43:48;22.40;73.10
1956;DHT22;978;48.314;11.562;2023-06-14T00:46:16;22.40;73.00
1956;DHT22;978;48.314;11.562;2023-06-14T00:48:51;22.40;73.10
1956;DHT22;978;48.314;11.562;2023-06-14T00:51:18;22.40;73.00
1956;DHT22;978;48.314;11.562;2023-06-14T00:53:46;22.40;73.10
1956;DHT22;978;48.314;11.562;2023-06-14T00:56:13;22.40;73.00
1956;DHT22;978;48.314;11.562;2023-06-14T00:58:41;22.40;73.00
1956;DHT22;978;48.314;11.562;2023-06-14T01:01:08;22.40;73.00
1956;DHT22;978;48.314;11.562;2023-06-14T01:03:34;22.40;73.00
1956;DHT22;978;48.314;11.562;2023-06-14T01:06:11;22.40;72.90
1956;DHT22;978;48.314;11.562;2023-06-14T01:08:47;22.40;72.90
1956;DHT22;978;48.314;11.562;2023-06-14T01:11:21;22.40;73.00
1956;DHT22;978;48.314;11.562;2023-06-14T01:13:50;22.40;72.90
1956;DHT22;978;48.314;11.562;2023-06-14T01:16:18;22.40;72.90
1956;DHT22;978;48.314;11.562;2023-06-14T01:18:47;22.40;72.90
1956;DHT22;978;48.314;11.562;2023-06-14T01:21:22;22.40;72.90
1956;DHT22;978;48.314;11.562;2023-06-14T01:23:58;22.30;72.90
1956;DHT22;978;48.314;11.562;2023-06-14T01:26:28;22.40;72.90
1956;DHT22;978;48.314;11.562;2023-06-14T01:28:58;22.40;72.90
1956;DHT22;978;48.314;11.562;2023-06-14T01:31:26;22.40;72.90
1956;DHT22;978;48.314;11.562;2023-06-14T01:33:56;22.40;72.90
1956;DHT22;978;48.314;11.562;2023-06-14T01:36:26;22.40;72.90
1956;DHT22;978;48.314;11.562;2023-06-14T01:38:54;22.30;72.70
1956;DHT22;978;48.314;11.562;2023-06-14T01:41:26;22.40;72.80
1956;DHT22;978;48.314;11.562;2023-06-14T01:43:54;22.30;72.80
1956;DHT22;978;48.314;11.562;2023-06-14T01:46:23;22.40;72.80
1956;DHT22;978;48.314;11.562;2023-06-14T01:48:50;22.40;72.80
1956;DHT22;978;48.314;11.562;2023-06-14T01:51:17;22.40;72.80
1956;DHT22;978;48.314;11.562;2023-06-14T01:53:45;22.40;72.80
1956;DHT22;978;48.314;11.562;2023-06-14T01:56:13;22.40;72.70
1956;DHT22;978;48.314;11.562;2023-06-14T01:58:43;22.40;72.80
1956;DHT22;978;48.314;11.562;2023-06-14T02:01:12;22.40;72.80
1956;DHT22;978;48.314;11.562;2023-06-14T02:03:42;22.30;72.70
1956;DHT22;978;48.314;11.562;2023-06-14T02:06:10;22.40;72.80
1956;DHT22;978;48.314;11.562;2023-06-14T02:08:37;22.40;72.70
1956;DHT22;978;48.314;11.562;2023-06-14T02:11:04;22.40;72.70
1956;DHT22;978;48.314;11.562;2023-06-14T02:13:31;22.30;72.70
1956;DHT22;978;48.314;11.562;2023-06-14T02:16:01;22.40;72.70
1956;DHT22;978;48.314;11.562;2023-06-14T02:18:28;22.40;72.70
1956;DHT22;978;48.314;11.562;2023-06-14T02:20:57;22.40;72.70
1956;DHT22;978;48.314;11.562;2023-06-14T02:23:24;22.40;72.70
1956;DHT22;978;48.314;11.562;2023-06-14T02:25:51;22.40;72.70
1956;DHT22;978;48.314;11.562;2023-06-14T02:28:18;22.40;72.70
1956;DHT22;978;48.314;11.562;2023-06-14T02:30:46;22.40;72.60
1956;DHT22;978;48.314;11.562;2023-06-14T02:33:14;22.30;72.60
1956;DHT22;978;48.314;11.562;2023-06-14T02:35:41;22.40;72.60
1956;DHT22;978;48.314;11.562;2023-06-14T02:38:08;22.30;72.50
1956;DHT22;978;48.314;11.562;2023-06-14T02:40:36;22.30;72.60
1956;DHT22;978;48.314;11.562;2023-06-14T02:43:03;22.40;72.60
1956;DHT22;978;48.314;11.562;2023-06-14T02:45:30;22.40;72.60
1956;DHT22;978;48.314;11.562;2023-06-14T02:47:57;22.40;72.60
1956;DHT22;978;48.314;11.562;2023-06-14T02:50:25;22.40;72.60
1956;DHT22;978;48.314;11.562;2023-06-14T02:52:53;22.40;72.60
1956;DHT22;978;48.314;11.562;2023-06-14T02:55:22;22.40;72.60
1956;DHT22;978;48.314;11.562;2023-06-14T02:57:49;22.40;72.50
1956;DHT22;978;48.314;11.562;2023-06-14T03:00:17;22.30;72.50
1956;DHT22;978;48.314;11.562;2023-06-14T03:02:45;22.40;72.50
1956;DHT22;978;48.314;11.562;2023-06-14T03:05:13;22.30;72.50
1956;DHT22;978;48.314;11.562;2023-06-14T03:07:46;22.40;72.50
1956;DHT22;978;48.314;11.562;2023-06-14T03:10:13;22.40;72.60
1956;DHT22;978;48.314;11.562;2023-06-14T03:12:40;22.40;72.50
1956;DHT22;978;48.314;11.562;2023-06-14T03:15:07;22.30;72.50
1956;DHT22;978;48.314;11.562;2023-06-14T03:17:34;22.30;73.00
1956;DHT22;978;48.314;11.562;2023-06-14T03:20:05;22.40;72.50
1956;DHT22;978;48.314;11.562;2023-06-14T03:22:33;22.40;72.50
1956;DHT22;978;48.314;11.562;2023-06-14T03:25:05;22.40;72.50
1956;DHT22;978;48.314;11.562;2023-06-14T03:27:33;22.40;72.50
1956;DHT22;978;48.314;11.562;2023-06-14T03:30:00;22.40;72.50
1956;DHT22;978;48.314;11.562;2023-06-14T03:32:28;22.40;72.50
1956;DHT22;978;48.314;11.562;2023-06-14T03:34:58;22.30;72.40
1956;DHT22;978;48.314;11.562;2023-06-14T03:37:25;22.30;72.40
1956;DHT22;978;48.314;11.562;2023-06-14T03:39:52;22.40;72.50
1956;DHT22;978;48.314;11.562;2023-06-14T03:42:20;22.30;72.40
1956;DHT22;978;48.314;11.562;2023-06-14T03:44:48;22.40;72.40
1956;DHT22;978;48.314;11.562;2023-06-14T03:47:14;22.40;72.50
1956;DHT22;978;48.314;11.562;2023-06-14T03:49:41;22.40;72.40
1956;DHT22;978;48.314;11.562;2023-06-14T03:52:08;22.40;72.40
1956;DHT22;978;48.314;11.562;2023-06-14T03:54:35;22.40;72.40
1956;DHT22;978;48.314;11.562;2023-06-14T03:57:02;22.40;72.50
1956;DHT22;978;48.314;11.562;2023-06-14T03:59:43;22.30;72.40
1956;DHT22;978;48.314;11.562;2023-06-14T04:02:13;22.30;72.40
1956;DHT22;978;48.314;11.562;2023-06-14T04:04:44;22.30;72.40
1956;DHT22;978;48.314;11.562;2023-06-14T04:07:13;22.30;72.50
1956;DHT22;978;48.314;11.562;2023-06-14T04:09:49;22.30;72.50
1956;DHT22;978;48.314;11.562;2023-06-14T04:12:20;22.40;72.50
1956;DHT22;978;48.314;11.562;2023-06-14T04:15:12;22.40;72.50
1956;DHT22;978;48.314;11.562;2023-06-14T04:17:41;22.30;72.40
1956;DHT22;978;48.314;11.562;2023-06-14T04:20:09;22.40;72.50
1956;DHT22;978;48.314;11.562;2023-06-14T04:22:39;22.40;72.50
1956;DHT22;978;48.314;11.562;2023-06-14T04:25:10;22.30;72.40
1956;DHT22;978;48.314;11.562;2023-06-14T04:27:40;22.40;72.50
1956;DHT22;978;48.314;11.562;2023-06-14T04:30:25;22.30;72.40
1956;DHT22;978;48.314;11.562;2023-06-14T04:32:55;22.40;72.40
1956;DHT22;978;48.314;11.562;2023-06-14T04:35:21;22.40;72.40
1956;DHT22;978;48.314;11.562;2023-06-14T04:37:50;22.30;72.40
1956;DHT22;978;48.314;11.562;2023-06-14T04:40:19;22.30;72.40
1956;DHT22;978;48.314;11.562;2023-06-14T04:42:51;22.30;72.30
1956;DHT22;978;48.314;11.562;2023-06-14T04:45:34;22.40;72.40
1956;DHT22;978;48.314;11.562;2023-06-14T04:48:05;22.40;72.40
1956;DHT22;978;48.314;11.562;2023-06-14T04:50:37;22.30;72.40
1956;DHT22;978;48.314;11.562;2023-06-14T04:53:08;22.40;72.40
1956;DHT22;978;48.314;11.562;2023-06-14T04:55:39;22.30;72.40
1956;DHT22;978;48.314;11.562;2023-06-14T04:58:11;22.30;72.40
1956;DHT22;978;48.314;11.562;2023-06-14T05:00:42;22.30;72.40
1956;DHT22;978;48.314;11.562;2023-06-14T05:03:11;22.30;72.40
1956;DHT22;978;48.314;11.562;2023-06-14T05:05:48;22.30;72.40
1956;DHT22;978;48.314;11.562;2023-06-14T05:08:22;22.40;72.40
1956;DHT22;978;48.314;11.562;2023-06-14T05:10:55;22.30;72.50
1956;DHT22;978;48.314;11.562;2023-06-14T05:13:25;22.30;72.50
1956;DHT22;978;48.314;11.562;2023-06-14T05:15:57;22.30;72.50
1956;DHT22;978;48.314;11.562;2023-06-14T05:18:29;22.30;72.50
1956;DHT22;978;48.314;11.562;2023-06-14T05:20:57;22.40;72.50
1956;DHT22;978;48.314;11.562;2023-06-14T05:23:28;22.30;72.50
1956;DHT22;978;48.314;11.562;2023-06-14T05:26:04;22.30;72.60
1956;DHT22;978;48.314;11.562;2023-06-14T05:28:33;22.30;72.60
1956;DHT22;978;48.314;11.562;2023-06-14T05:31:02;22.30;72.50
1956;DHT22;978;48.314;11.562;2023-06-14T05:33:30;22.40;72.60
1956;DHT22;978;48.314;11.562;2023-06-14T05:35:58;22.40;72.60
1956;DHT22;978;48.314;11.562;2023-06-14T05:38:30;22.30;72.60
1956;DHT22;978;48.314;11.562;2023-06-14T05:40:58;22.30;72.60
1956;DHT22;978;48.314;11.562;2023-06-14T05:43:28;22.30;72.60
1956;DHT22;978;48.314;11.562;2023-06-14T05:45:58;22.30;72.60
1956;DHT22;978;48.314;11.562;2023-06-14T05:48:36;22.40;72.70
1956;DHT22;978;48.314;11.562;2023-06-14T05:51:04;22.30;72.60
1956;DHT22;978;48.314;11.562;2023-06-14T05:53:34;22.30;72.70
1956;DHT22;978;48.314;11.562;2023-06-14T05:56:05;22.40;72.70
1956;DHT22;978;48.314;11.562;2023-06-14T05:58:48;22.40;72.70
1956;DHT22;978;48.314;11.562;2023-06-14T06:01:16;22.40;72.70
1956;DHT22;978;48.314;11.562;2023-06-14T06:03:49;22.40;72.70
1956;DHT22;978;48.314;11.562;2023-06-14T06:06:16;22.30;72.70
1956;DHT22;978;48.314;11.562;2023-06-14T06:08:44;22.30;72.70
1956;DHT22;978;48.314;11.562;2023-06-14T06:11:12;22.30;72.70
1956;DHT22;978;48.314;11.562;2023-06-14T06:13:49;22.30;72.70
1956;DHT22;978;48.314;11.562;2023-06-14T06:16:26;22.40;72.70
1956;DHT22;978;48.314;11.562;2023-06-14T06:19:05;22.30;72.70
1956;DHT22;978;48.314;11.562;2023-06-14T06:21:48;22.40;72.70
1956;DHT22;978;48.314;11.562;2023-06-14T06:24:15;22.30;72.70
1956;DHT22;978;48.314;11.562;2023-06-14T06:26:45;22.40;72.70
1956;DHT22;978;48.314;11.562;2023-06-14T06:29:14;22.30;72.70
1956;DHT22;978;48.314;11.562;2023-06-14T06:31:47;22.30;72.70
1956;DHT22;978;48.314;11.562;2023-06-14T06:34:30;22.30;72.80
1956;DHT22;978;48.314;11.562;2023-06-14T06:36:59;22.40;72.80
1956;DHT22;978;48.314;11.562;2023-06-14T06:39:30;22.30;72.70
1956;DHT22;978;48.314;11.562;2023-06-14T06:42:00;22.30;72.80
1956;DHT22;978;48.314;11.562;2023-06-14T06:44:30;22.30;72.70
1956;DHT22;978;48.314;11.562;2023-06-14T06:46:58;22.30;72.00
1956;DHT22;978;48.314;11.562;2023-06-14T06:49:40;22.30;71.30
1956;DHT22;978;48.314;11.562;2023-06-14T06:52:09;22.30;70.90
1956;DHT22;978;48.314;11.562;2023-06-14T06:54:38;22.30;70.40
1956;DHT22;978;48.314;11.562;2023-06-14T06:57:14;22.30;70.20
1956;DHT22;978;48.314;11.562;2023-06-14T06:59:44;22.30;70.30
1956;DHT22;978;48.314;11.562;2023-06-14T07:02:14;22.30;70.40
1956;DHT22;978;48.314;11.562;2023-06-14T07:04:49;22.30;71.10
1956;DHT22;978;48.314;11.562;2023-06-14T07:07:19;22.30;71.40
1956;DHT22;978;48.314;11.562;2023-06-14T07:09:50;22.30;71.90
1956;DHT22;978;48.314;11.562;2023-06-14T07:12:21;22.30;72.00
1956;DHT22;978;48.314;11.562;2023-06-14T07:14:57;22.30;72.10
1956;DHT22;978;48.314;11.562;2023-06-14T07:17:27;22.30;72.10
1956;DHT22;978;48.314;11.562;2023-06-14T07:20:06;22.30;72.20
1956;DHT22;978;48.314;11.562;2023-06-14T07:22:43;22.30;72.20
1956;DHT22;978;48.314;11.562;2023-06-14T07:25:12;22.30;72.20
1956;DHT22;978;48.314;11.562;2023-06-14T07:27:42;22.30;72.20
1956;DHT22;978;48.314;11.562;2023-06-14T07:30:18;22.30;72.20
1956;DHT22;978;48.314;11.562;2023-06-14T07:32:45;22.30;72.20
1956;DHT22;978;48.314;11.562;2023-06-14T07:35:24;22.40;72.30
1956;DHT22;978;48.314;11.562;2023-06-14T07:37:52;22.30;72.20
1956;DHT22;978;48.314;11.562;2023-06-14T07:40:22;22.30;72.20
1956;DHT22;978;48.314;11.562;2023-06-14T07:42:49;22.30;72.30
1956;DHT22;978;48.314;11.562;2023-06-14T07:45:22;22.30;72.20
1956;DHT22;978;48.314;11.562;2023-06-14T07:47:51;22.30;72.20
1956;DHT22;978;48.314;11.562;2023-06-14T07:50:35;22.40;72.30
1956;DHT22;978;48.314;11.562;2023-06-14T07:53:04;22.30;72.20
1956;DHT22;978;48.314;11.562;2023-06-14T07:55:34;22.30;72.20
1956;DHT22;978;48.314;11.562;2023-06-14T07:58:11;22.30;72.30
1956;DHT22;978;48.314;11.562;2023-06-14T08:00:48;22.30;72.20
1956;DHT22;978;48.314;11.562;2023-06-14T08:03:15;22.30;72.30
1956;DHT22;978;48.314;11.562;2023-06-14T08:05:46;22.40;72.30
1956;DHT22;978;48.314;11.562;2023-06-14T08:08:23;22.30;72.30
1956;DHT22;978;48.314;11.562;2023-06-14T08:10:50;22.30;72.30
1956;DHT22;978;48.314;11.562;2023-06-14T08:13:20;22.30;72.30
1956;DHT22;978;48.314;11.562;2023-06-14T08:15:56;22.30;72.30
1956;DHT22;978;48.314;11.562;2023-06-14T08:18:29;22.30;72.30
1956;DHT22;978;48.314;11.562;2023-06-14T08:21:01;22.30;72.40
1956;DHT22;978;48.314;11.562;2023-06-14T08:23:29;22.40;72.40
1956;DHT22;978;48.314;11.562;2023-06-14T08:25:58;22.30;72.40
1956;DHT22;978;48.314;11.562;2023-06-14T08:28:30;22.30;72.40
1956;DHT22;978;48.314;11.562;2023-06-14T08:30:59;22.30;72.40
1956;DHT22;978;48.314;11.562;2023-06-14T08:33:29;22.30;72.30
1956;DHT22;978;48.314;11.562;2023-06-14T08:36:01;22.30;72.40
1956;DHT22;978;48.314;11.562;2023-06-14T08:38:28;22.30;72.70
1956;DHT22;978;48.314;11.562;2023-06-14T08:41:05;22.40;72.40
1956;DHT22;978;48.314;11.562;2023-06-14T08:43:35;22.30;72.40
1956;DHT22;978;48.314;11.562;2023-06-14T08:46:12;22.30;72.40
1956;DHT22;978;48.314;11.562;2023-06-14T08:48:46;22.40;72.40
1956;DHT22;978;48.314;11.562;2023-06-14T08:51:20;22.30;72.40
1956;DHT22;978;48.314;11.562;2023-06-14T08:54:03;22.30;72.40
1956;DHT22;978;48.314;11.562;2023-06-14T08:56:31;22.30;72.40
1956;DHT22;978;48.314;11.562;2023-06-14T08:59:02;22.30;72.40
1956;DHT22;978;48.314;11.562;2023-06-14T09:01:38;22.30;72.40
1956;DHT22;978;48.314;11.562;2023-06-14T09:04:07;22.30;72.50
1956;DHT22;978;48.314;11.562;2023-06-14T09:06:38;22.30;72.40
1956;DHT22;978;48.314;11.562;2023-06-14T09:09:07;22.30;72.40
1956;DHT22;978;48.314;11.562;2023-06-14T09:11:36;22.30;72.50
1956;DHT22;978;48.314;11.562;2023-06-14T09:14:11;22.30;72.40
1956;DHT22;978;48.314;11.562;2023-06-14T09:16:42;22.40;72.40
1956;DHT22;978;48.314;11.562;2023-06-14T09:19:23;22.30;72.50
1956;DHT22;978;48.314;11.562;2023-06-14T09:21:57;22.30;72.40
1956;DHT22;978;48.314;11.562;2023-06-14T09:24:24;22.30;72.40
1956;DHT22;978;48.314;11.562;2023-06-14T09:26:55;22.30;72.40
1956;DHT22;978;48.314;11.562;2023-06-14T09:29:32;22.30;72.40
1956;DHT22;978;48.314;11.562;2023-06-14T09:32:01;22.30;72.50
1956;DHT22;978;48.314;11.562;2023-06-14T09:34:33;22.40;72.50
1956;DHT22;978;48.314;11.562;2023-06-14T09:37:05;22.30;72.50
1956;DHT22;978;48.314;11.562;2023-06-14T09:39:33;22.30;72.50
1956;DHT22;978;48.314;11.562;2023-06-14T09:42:01;22.30;72.40
1956;DHT22;978;48.314;11.562;2023-06-14T09:44:49;22.30;72.40
1956;DHT22;978;48.314;11.562;2023-06-14T09:47:18;22.30;72.50
1956;DHT22;978;48.314;11.562;2023-06-14T09:49:48;22.30;72.50
1956;DHT22;978;48.314;11.562;2023-06-14T09:52:20;22.30;72.40
1956;DHT22;978;48.314;11.562;2023-06-14T09:54:47;22.40;72.50
1956;DHT22;978;48.314;11.562;2023-06-14T09:57:23;22.30;72.50
1956;DHT22;978;48.314;11.562;2023-06-14T10:00:03;22.30;72.50
1956;DHT22;978;48.314;11.562;2023-06-14T10:02:41;22.30;72.50
1956;DHT22;978;48.314;11.562;2023-06-14T10:05:15;22.30;72.40
1956;DHT22;978;48.314;11.562;2023-06-14T10:07:59;22.30;72.40
1956;DHT22;978;48.314;11.562;2023-06-14T10:10:28;22.30;72.40
1956;DHT22;978;48.314;11.562;2023-06-14T10:12:58;22.40;72.40
1956;DHT22;978;48.314;11.562;2023-06-14T10:15:38;22.30;72.40
1956;DHT22;978;48.314;11.562;2023-06-14T10:18:23;22.30;72.40
1956;DHT22;978;48.314;11.562;2023-06-14T10:21:03;22.30;72.30
1956;DHT22;978;48.314;11.562;2023-06-14T10:23:52;23.70;73.10
1956;DHT22;978;48.314;11.562;2023-06-14T10:26:23;22.30;72.40
1956;DHT22;978;48.314;11.562;2023-06-14T10:28:59;22.30;72.30
1956;DHT22;978;48.314;11.562;2023-06-14T10:31:44;22.30;72.40
1956;DHT22;978;48.314;11.562;2023-06-14T10:34:27;22.30;72.40
1956;DHT22;978;48.314;11.562;2023-06-14T10:37:07;22.30;72.40
1956;DHT22;978;48.314;11.562;2023-06-14T10:39:45;22.30;72.40
1956;DHT22;978;48.314;11.562;2023-06-14T10:42:17;22.40;72.40
1956;DHT22;978;48.314;11.562;2023-06-14T10:44:53;22.30;72.40
1956;DHT22;978;48.314;11.562;2023-06-14T10:47:30;22.30;72.30
1956;DHT22;978;48.314;11.562;2023-06-14T10:50:05;22.30;72.40
1956;DHT22;978;48.314;11.562;2023-06-14T10:52:37;22.30;72.30
1956;DHT22;978;48.314;11.562;2023-06-14T10:55:11;22.30;72.40
1956;DHT22;978;48.314;11.562;2023-06-14T10:57:45;22.30;72.40
1956;DHT22;978;48.314;11.562;2023-06-14T11:00:35;22.30;72.40
1956;DHT22;978;48.314;11.562;2023-06-14T11:03:43;22.30;72.30
1956;DHT22;978;48.314;11.562;2023-06-14T11:06:22;22.30;72.40
1956;DHT22;978;48.314;11.562;2023-06-14T11:09:24;22.30;72.40
1956;DHT22;978;48.314;11.562;2023-06-14T11:12:01;22.30;72.40
1956;DHT22;978;48.314;11.562;2023-06-14T11:14:30;22.30;72.40
1956;DHT22;978;48.314;11.562;2023-06-14T11:16:59;22.40;72.40
1956;DHT22;978;48.314;11.562;2023-06-14T11:19:30;22.30;72.40
1956;DHT22;978;48.314;11.562;2023-06-14T11:21:57;22.30;72.40
1956;DHT22;978;48.314;11.562;2023-06-14T11:24:26;22.30;72.40
1956;DHT22;978;48.314;11.562;2023-06-14T11:27:02;22.30;72.90
1956;DHT22;978;48.314;11.562;2023-06-14T11:29:30;22.30;72.30
1956;DHT22;978;48.314;11.562;2023-06-14T11:32:01;22.40;72.40
1956;DHT22;978;48.314;11.562;2023-06-14T11:34:33;22.30;72.40
1956;DHT22;978;48.314;11.562;2023-06-14T11:37:11;22.30;72.40
1956;DHT22;978;48.314;11.562;2023-06-14T11:39:46;22.30;72.40
1956;DHT22;978;48.314;11.562;2023-06-14T11:42:28;22.30;72.40
1956;DHT22;978;48.314;11.562;2023-06-14T11:44:56;22.30;72.40
1956;DHT22;978;48.314;11.562;2023-06-14T11:47:33;22.30;72.50
1956;DHT22;978;48.314;11.562;2023-06-14T11:50:05;22.30;72.50
1956;DHT22;978;48.314;11.562;2023-06-14T11:52:35;22.30;72.50
1956;DHT22;978;48.314;11.562;2023-06-14T11:55:04;22.30;72.50
1956;DHT22;978;48.314;11.562;2023-06-14T11:57:35;22.30;72.60
1956;DHT22;978;48.314;11.562;2023-06-14T12:00:09;22.30;72.60
1956;DHT22;978;48.314;11.562;2023-06-14T12:02:52;22.30;72.60
1956;DHT22;978;48.314;11.562;2023-06-14T12:05:26;22.30;72.70
1956;DHT22;978;48.314;11.562;2023-06-14T12:07:58;22.30;72.70
1956;DHT22;978;48.314;11.562;2023-06-14T12:10:27;22.30;72.70
1956;DHT22;978;48.314;11.562;2023-06-14T12:13:11;22.40;72.80
1956;DHT22;978;48.314;11.562;2023-06-14T12:15:44;22.30;72.70
1956;DHT22;978;48.314;11.562;2023-06-14T12:18:19;22.30;72.70
1956;DHT22;978;48.314;11.562;2023-06-14T12:20:51;22.30;72.70
1956;DHT22;978;48.314;11.562;2023-06-14T12:23:19;22.30;72.80
1956;DHT22;978;48.314;11.562;2023-06-14T12:25:51;22.30;72.70
1956;DHT22;978;48.314;11.562;2023-06-14T12:28:23;22.30;72.80
1956;DHT22;978;48.314;11.562;2023-06-14T12:30:52;22.30;72.80
1956;DHT22;978;48.314;11.562;2023-06-14T12:33:28;22.30;72.80
1956;DHT22;978;48.314;11.562;2023-06-14T12:35:59;22.30;72.80
1956;DHT22;978;48.314;11.562;2023-06-14T12:38:27;22.30;72.90
1956;DHT22;978;48.314;11.562;2023-06-14T12:40:56;22.30;72.80
1956;DHT22;978;48.314;11.562;2023-06-14T12:43:28;22.30;72.90
1956;DHT22;978;48.314;11.562;2023-06-14T12:45:55;22.30;72.90
1956;DHT22;978;48.314;11.562;2023-06-14T12:48:25;22.30;72.90
1956;DHT22;978;48.314;11.562;2023-06-14T12:50:57;22.30;72.80
1956;DHT22;978;48.314;11.562;2023-06-14T12:53:25;22.30;72.80
1956;DHT22;978;48.314;11.562;2023-06-14T12:55:56;22.30;72.90
1956;DHT22;978;48.314;11.562;2023-06-14T12:58:27;22.30;72.80
1956;DHT22;978;48.314;11.562;2023-06-14T13:01:00;22.30;72.90
1956;DHT22;978;48.314;11.562;2023-06-14T13:03:28;22.40;72.90
1956;DHT22;978;48.314;11.562;2023-06-14T13:06:01;22.30;72.80
1956;DHT22;978;48.314;11.562;2023-06-14T13:08:33;22.30;72.80
1956;DHT22;978;48.314;11.562;2023-06-14T13:11:12;22.30;72.80
1956;DHT22;978;48.314;11.562;2023-06-14T13:13:41;22.30;72.70
1956;DHT22;978;48.314;11.562;2023-06-14T13:16:09;22.30;73.30
1956;DHT22;978;48.314;11.562;2023-06-14T13:18:39;22.30;72.70
1956;DHT22;978;48.314;11.562;2023-06-14T13:21:15;22.30;72.70
1956;DHT22;978;48.314;11.562;2023-06-14T13:23:43;22.30;72.70
1956;DHT22;978;48.314;11.562;2023-06-14T13:26:13;22.40;72.80
1956;DHT22;978;48.314;11.562;2023-06-14T13:28:47;22.30;72.80
1956;DHT22;978;48.314;11.562;2023-06-14T13:31:16;22.30;72.70
1956;DHT22;978;48.314;11.562;2023-06-14T13:33:46;22.30;72.70
1956;DHT22;978;48.314;11.562;2023-06-14T13:36:23;22.30;72.80
1956;DHT22;978;48.314;11.562;2023-06-14T13:38:53;22.30;72.70
1956;DHT22;978;48.314;11.562;2023-06-14T13:41:21;22.30;72.70
1956;DHT22;978;48.314;11.562;2023-06-14T13:44:04;22.30;72.70
1956;DHT22;978;48.314;11.562;2023-06-14T13:46:33;22.30;72.70
1956;DHT22;978;48.314;11.562;2023-06-14T13:49:02;22.30;72.70
1956;DHT22;978;48.314;11.562;2023-06-14T13:51:34;22.30;72.60
1956;DHT22;978;48.314;11.562;2023-06-14T13:54:03;22.30;72.70
1956;DHT22;978;48.314;11.562;2023-06-14T13:56:33;22.30;72.60
1956;DHT22;978;48.314;11.562;2023-06-14T13:59:16;22.30;72.70
1956;DHT22;978;48.314;11.562;2023-06-14T14:01:46;22.30;72.70
1956;DHT22;978;48.314;11.562;2023-06-14T14:04:12;22.30;72.70
1956;DHT22;978;48.314;11.562;2023-06-14T14:06:39;22.30;72.70
1956;DHT22;978;48.314;11.562;2023-06-14T14:09:11;22.30;72.70
1956;DHT22;978;48.314;11.562;2023-06-14T14:11:43;22.30;72.70
1956;DHT22;978;48.314;11.562;2023-06-14T14:14:20;22.30;72.80
1956;DHT22;978;48.314;11.562;2023-06-14T14:16:52;22.30;72.70
1956;DHT22;978;48.314;11.562;2023-06-14T14:19:26;22.30;72.80
1956;DHT22;978;48.314;11.562;2023-06-14T14:21:54;22.30;72.70
1956;DHT22;978;48.314;11.562;2023-06-14T14:24:25;22.30;72.70
1956;DHT22;978;48.314;11.562;2023-06-14T14:27:02;22.30;72.70
1956;DHT22;978;48.314;11.562;2023-06-14T14:29:35;22.30;73.40
1956;DHT22;978;48.314;11.562;2023-06-14T14:32:04;22.30;72.70
1956;DHT22;978;48.314;11.562;2023-06-14T14:34:48;22.30;72.70
1956;DHT22;978;48.314;11.562;2023-06-14T14:37:16;22.30;72.70
1956;DHT22;978;48.314;11.562;2023-06-14T14:39:45;22.30;72.70
1956;DHT22;978;48.314;11.562;2023-06-14T14:42:12;22.30;72.70
1956;DHT22;978;48.314;11.562;2023-06-14T14:44:49;22.30;72.70
1956;DHT22;978;48.314;11.562;2023-06-14T14:47:18;22.30;72.70
1956;DHT22;978;48.314;11.562;2023-06-14T14:49:47;22.30;72.70
1956;DHT22;978;48.314;11.562;2023-06-14T14:52:19;22.30;72.70
1956;DHT22;978;48.314;11.562;2023-06-14T14:54:55;22.30;72.70
1956;DHT22;978;48.314;11.562;2023-06-14T14:57:23;22.30;72.70
1956;DHT22;978;48.314;11.562;2023-06-14T14:59:54;22.30;72.70
1956;DHT22;978;48.314;11.562;2023-06-14T15:02:20;22.30;72.60
1956;DHT22;978;48.314;11.562;2023-06-14T15:05:01;22.30;72.70
1956;DHT22;978;48.314;11.562;2023-06-14T15:07:28;22.30;72.70
1956;DHT22;978;48.314;11.562;2023-06-14T15:09:56;22.30;72.70
1956;DHT22;978;48.314;11.562;2023-06-14T15:12:23;22.30;72.60
1956;DHT22;978;48.314;11.562;2023-06-14T15:15:11;22.30;72.60
1956;DHT22;978;48.314;11.562;2023-06-14T15:17:39;22.30;72.60
1956;DHT22;978;48.314;11.562;2023-06-14T15:20:16;22.30;72.60
1956;DHT22;978;48.314;11.562;2023-06-14T15:22:45;22.30;72.60
1956;DHT22;978;48.314;11.562;2023-06-14T15:25:12;22.30;72.60
1956;DHT22;978;48.314;11.562;2023-06-14T15:27:41;22.30;72.60
1956;DHT22;978;48.314;11.562;2023-06-14T15:30:18;22.30;72.60
1956;DHT22;978;48.314;11.562;2023-06-14T15:32:47;22.40;72.60
1956;DHT22;978;48.314;11.562;2023-06-14T15:35:21;22.30;72.60
1956;DHT22;978;48.314;11.562;2023-06-14T15:37:53;22.40;72.60
1956;DHT22;978;48.314;11.562;2023-06-14T15:40:31;22.40;72.60
1956;DHT22;978;48.314;11.562;2023-06-14T15:43:05;22.30;72.60
1956;DHT22;978;48.314;11.562;2023-06-14T15:45:33;22.30;72.50
1956;DHT22;978;48.314;11.562;2023-06-14T15:48:03;22.30;72.50
1956;DHT22;978;48.314;11.562;2023-06-14T15:50:30;22.30;72.60
1956;DHT22;978;48.314;11.562;2023-06-14T15:52:59;22.30;73.10
1956;DHT22;978;48.314;11.562;2023-06-14T15:55:29;22.30;72.50
1956;DHT22;978;48.314;11.562;2023-06-14T15:57:58;22.30;72.50
1956;DHT22;978;48.314;11.562;2023-06-14T16:00:26;22.30;72.50
1956;DHT22;978;48.314;11.562;2023-06-14T16:02:58;22.30;72.50
1956;DHT22;978;48.314;11.562;2023-06-14T16:05:43;22.30;72.50
1956;DHT22;978;48.314;11.562;2023-06-14T16:08:14;22.30;72.50
1956;DHT22;978;48.314;11.562;2023-06-14T16:10:44;22.30;72.50
1956;DHT22;978;48.314;11.562;2023-06-14T16:13:12;22.30;72.50
1956;DHT22;978;48.314;11.562;2023-06-14T16:15:40;22.30;72.50
1956;DHT22;978;48.314;11.562;2023-06-14T16:18:12;22.30;72.50
1956;DHT22;978;48.314;11.562;2023-06-14T16:20:43;22.30;72.50
1956;DHT22;978;48.314;11.562;2023-06-14T16:23:13;22.30;72.60
1956;DHT22;978;48.314;11.562;2023-06-14T16:25:49;22.30;72.60
1956;DHT22;978;48.314;11.562;2023-06-14T16:28:19;22.30;72.60
1956;DHT22;978;48.314;11.562;2023-06-14T16:30:50;22.30;72.60